createdAt,value
2019-02-20T00:01:31.113Z,11.43
2019-02-20T00:04:01.562Z,9.17
2019-02-20T00:06:31.959Z,9.63
2019-02-20T00:09:02.385Z,13.20
2019-02-20T00:11:32.811Z,8.93
2019-02-20T00:14:03.228Z,8.37
2019-02-20T00:16:33.621Z,8.20
2019-02-20T00:19:04.082Z,9.57
2019-02-20T00:21:34.490Z,8.40
2019-02-20T00:24:04.944Z,8.83
2019-02-20T00:26:35.418Z,8.90
2019-02-20T00:29:05.839Z,8.37
2019-02-20T00:31:36.255Z,9.13
2019-02-20T00:34:08.215Z,8.13
2019-02-20T00:36:38.824Z,8.87
2019-02-20T00:39:10.222Z,8.97
2019-02-20T00:41:40.765Z,8.97
2019-02-20T00:44:29.000Z,7.97
2019-02-20T00:47:24.596Z,8.70
2019-02-20T00:49:54.993Z,9.10
2019-02-20T00:52:49.869Z,10.23
2019-02-20T00:55:17.075Z,9.10
2019-02-20T00:57:47.506Z,8.37
2019-02-20T01:00:17.920Z,10.03
2019-02-20T01:02:48.340Z,8.87
2019-02-20T01:05:18.716Z,8.90
2019-02-20T01:07:49.133Z,8.87
2019-02-20T01:10:19.548Z,8.27
2019-02-20T01:12:49.964Z,8.40
2019-02-20T01:15:20.510Z,10.00
2019-02-20T01:17:50.930Z,9.37
2019-02-20T01:20:21.414Z,8.63
2019-02-20T01:22:59.685Z,8.57
2019-02-20T01:25:23.967Z,8.33
2019-02-20T01:27:54.360Z,9.47
2019-02-20T01:30:24.795Z,7.90
2019-02-20T01:32:55.223Z,9.33
2019-02-20T01:35:25.612Z,11.23
2019-02-20T01:37:56.040Z,8.93
2019-02-20T01:40:26.429Z,10.17
2019-02-20T01:42:56.842Z,10.17
2019-02-20T01:45:27.312Z,9.73
2019-02-20T01:47:57.860Z,10.33
2019-02-20T01:50:28.293Z,10.17
2019-02-20T01:52:58.727Z,11.00
2019-02-20T01:55:29.162Z,9.47
2019-02-20T01:57:59.693Z,9.57
2019-02-20T02:00:30.134Z,11.27
2019-02-20T02:03:00.517Z,11.10
2019-02-20T02:05:30.945Z,11.17
2019-02-20T02:08:01.349Z,9.50
2019-02-20T02:10:31.760Z,10.53
2019-02-20T02:13:02.210Z,10.43
2019-02-20T02:15:32.713Z,9.70
2019-02-20T02:18:03.112Z,9.77
2019-02-20T02:20:33.783Z,10.30
2019-02-20T02:23:04.285Z,9.00
2019-02-20T02:25:34.715Z,10.37
2019-02-20T02:28:05.122Z,9.60
2019-02-20T02:30:35.688Z,10.23
2019-02-20T02:33:06.087Z,9.07
2019-02-20T02:35:36.568Z,10.90
2019-02-20T02:38:06.950Z,10.17
2019-02-20T02:40:37.491Z,8.37
2019-02-20T02:43:07.945Z,9.97
2019-02-20T02:45:38.378Z,10.83
2019-02-20T02:48:08.786Z,11.27
2019-02-20T02:50:39.212Z,10.50
2019-02-20T02:53:09.682Z,12.20
2019-02-20T02:55:40.134Z,9.37
2019-02-20T02:58:10.552Z,10.77
2019-02-20T03:00:41.001Z,9.30
2019-02-20T03:03:11.399Z,10.90
2019-02-20T03:05:41.831Z,11.30
2019-02-20T03:08:12.229Z,10.17
2019-02-20T03:10:42.648Z,11.50
2019-02-20T03:13:13.055Z,9.67
2019-02-20T03:15:43.483Z,11.07
2019-02-20T03:18:13.873Z,9.67
2019-02-20T03:20:44.331Z,11.10
2019-02-20T03:23:14.783Z,15.03
2019-02-20T03:25:45.201Z,10.17
2019-02-20T03:28:15.592Z,13.13
2019-02-20T03:30:46.021Z,12.10
2019-02-20T03:33:16.428Z,11.80
2019-02-20T03:35:46.891Z,11.20
2019-02-20T03:38:17.329Z,9.80
2019-02-20T03:40:47.766Z,9.77
2019-02-20T03:43:18.172Z,10.73
2019-02-20T03:45:48.598Z,12.10
2019-02-20T03:48:19.019Z,11.00
2019-02-20T03:50:49.445Z,11.10
2019-02-20T03:53:19.845Z,11.00
2019-02-20T03:55:50.670Z,9.90
2019-02-20T03:58:21.127Z,10.87
2019-02-20T04:00:51.536Z,10.33
2019-02-20T04:03:21.928Z,10.00
2019-02-20T04:05:52.360Z,10.57
2019-02-20T04:08:22.746Z,9.83
2019-02-20T04:10:53.152Z,13.50
2019-02-20T04:13:23.576Z,11.93
2019-02-20T04:15:53.972Z,11.23
2019-02-20T04:18:24.507Z,10.73
2019-02-20T04:20:54.888Z,11.67
2019-02-20T04:23:25.422Z,10.63
2019-02-20T04:25:55.823Z,10.40
2019-02-20T04:28:26.248Z,13.87
2019-02-20T04:30:56.672Z,11.27
2019-02-20T04:33:27.097Z,10.77
2019-02-20T04:35:57.506Z,11.90
2019-02-20T04:38:27.959Z,11.90
2019-02-20T04:40:58.354Z,12.87
2019-02-20T04:43:28.841Z,12.60
2019-02-20T04:45:59.281Z,12.57
2019-02-20T04:48:29.767Z,14.50
2019-02-20T04:51:00.180Z,12.33
2019-02-20T04:53:30.727Z,13.67
2019-02-20T04:56:01.148Z,12.97
2019-02-20T04:58:31.699Z,13.10
2019-02-20T05:01:02.120Z,11.83
2019-02-20T05:03:32.542Z,12.90
2019-02-20T05:06:02.940Z,13.23
2019-02-20T05:08:33.383Z,12.43
2019-02-20T05:11:03.785Z,13.23
2019-02-20T05:13:37.338Z,10.60
2019-02-20T05:16:07.765Z,11.83
2019-02-20T05:18:38.318Z,13.20
2019-02-20T05:21:08.722Z,10.40
2019-02-20T05:23:39.229Z,11.87
2019-02-20T05:26:09.630Z,12.57
2019-02-20T05:28:40.102Z,13.20
2019-02-20T05:31:10.574Z,12.57
2019-02-20T05:33:41.023Z,11.37
2019-02-20T05:36:11.412Z,14.30
2019-02-20T05:38:41.847Z,13.83
2019-02-20T05:41:12.356Z,13.40
2019-02-20T05:43:42.776Z,12.03
2019-02-20T05:46:13.310Z,13.03
2019-02-20T05:48:43.714Z,13.77
2019-02-20T05:51:14.146Z,12.87
2019-02-20T05:53:44.585Z,11.13
2019-02-20T05:56:15.097Z,12.67
2019-02-20T05:58:45.547Z,12.20
2019-02-20T06:01:16.071Z,11.10
2019-02-20T06:03:46.506Z,12.33
2019-02-20T06:06:16.962Z,11.50
2019-02-20T06:08:47.424Z,12.80
2019-02-20T06:11:17.928Z,12.23
2019-02-20T06:13:48.327Z,12.73
2019-02-20T06:16:18.744Z,13.63
2019-02-20T06:18:49.222Z,11.90
2019-02-20T06:21:19.634Z,11.33
2019-02-20T06:23:50.076Z,12.03
2019-02-20T06:26:20.495Z,13.87
2019-02-20T06:28:50.962Z,11.53
2019-02-20T06:31:21.415Z,12.90
2019-02-20T06:33:51.923Z,13.73
2019-02-20T06:36:22.424Z,12.47
2019-02-20T06:38:52.856Z,11.33
2019-02-20T06:41:23.266Z,13.50
2019-02-20T06:43:53.778Z,13.60
2019-02-20T06:46:24.269Z,13.07
2019-02-20T06:48:54.712Z,13.70
2019-02-20T06:51:25.168Z,11.23
2019-02-20T06:53:55.593Z,14.90
2019-02-20T06:56:26.021Z,13.80
2019-02-20T06:58:56.516Z,12.87
2019-02-20T07:01:26.919Z,11.43
2019-02-20T07:03:57.353Z,13.50
2019-02-20T07:07:22.511Z,11.77
2019-02-20T07:10:50.397Z,10.83
2019-02-20T07:13:53.928Z,13.03
2019-02-20T07:17:24.106Z,12.77
2019-02-20T07:21:00.806Z,14.70
2019-02-20T07:24:04.991Z,11.47
2019-02-20T07:27:18.826Z,12.20
2019-02-20T07:30:04.651Z,14.37
2019-02-20T07:32:35.126Z,12.67
2019-02-20T07:35:08.522Z,13.53
2019-02-20T07:37:39.192Z,12.07
2019-02-20T07:40:13.307Z,14.80
2019-02-20T07:42:43.772Z,13.00
2019-02-20T07:45:15.818Z,13.93
2019-02-20T07:47:46.301Z,12.50
2019-02-20T07:50:19.680Z,13.60
2019-02-20T07:53:02.057Z,13.27
2019-02-20T07:55:32.511Z,12.97
2019-02-20T07:58:04.394Z,11.37
2019-02-20T08:00:34.856Z,13.00
2019-02-20T08:03:05.300Z,16.10
2019-02-20T08:05:35.729Z,13.63
2019-02-20T08:08:06.153Z,12.80
2019-02-20T08:10:36.595Z,12.10
2019-02-20T08:13:07.019Z,13.57
2019-02-20T08:15:37.472Z,13.23
2019-02-20T08:18:07.919Z,14.53
2019-02-20T08:20:38.374Z,13.97
2019-02-20T08:23:08.811Z,13.23
2019-02-20T08:25:39.257Z,12.93
2019-02-20T08:28:09.692Z,14.10
2019-02-20T08:30:40.150Z,11.70
2019-02-20T08:33:10.648Z,13.30
2019-02-20T08:35:41.096Z,14.00
2019-02-20T08:38:11.593Z,15.50
2019-02-20T08:40:42.091Z,14.37
2019-02-20T08:43:12.525Z,13.77
2019-02-20T08:45:42.997Z,13.30
2019-02-20T08:48:13.496Z,14.37
2019-02-20T08:50:44.003Z,13.53
2019-02-20T08:53:14.454Z,13.47
2019-02-20T08:55:45.039Z,10.37
2019-02-20T08:58:15.492Z,13.55
2019-02-20T09:00:45.980Z,12.73
2019-02-20T09:03:16.435Z,14.47
2019-02-20T09:05:46.909Z,11.93
2019-02-20T09:08:17.363Z,13.60
2019-02-20T09:10:47.832Z,16.20
2019-02-20T09:13:18.269Z,12.35
2019-02-20T09:15:48.759Z,10.10
2019-02-20T09:18:19.221Z,14.10
2019-02-20T09:20:49.705Z,13.08
2019-02-20T09:23:20.127Z,15.97
2019-02-20T09:25:50.693Z,14.10
2019-02-20T09:28:21.144Z,14.58
2019-02-20T09:30:51.582Z,19.40
2019-02-20T09:33:22.023Z,13.33
2019-02-20T09:35:53.951Z,13.00
2019-02-20T09:38:24.409Z,10.98
2019-02-20T09:40:54.848Z,19.15
2019-02-20T09:43:26.798Z,12.00
2019-02-20T09:45:57.329Z,11.88
2019-02-20T09:48:27.747Z,13.55
2019-02-20T09:50:58.359Z,15.85
2019-02-20T09:53:28.763Z,14.73
2019-02-20T09:55:59.225Z,14.05
2019-02-20T09:58:29.640Z,15.72
2019-02-20T10:01:00.085Z,12.68
2019-02-20T10:03:30.512Z,13.22
2019-02-20T10:06:00.968Z,13.65
2019-02-20T10:08:31.421Z,11.28
2019-02-20T10:11:01.856Z,11.75
2019-02-20T10:13:32.291Z,14.58
2019-02-20T10:16:02.767Z,11.33
2019-02-20T10:18:33.219Z,11.53
2019-02-20T10:21:03.708Z,14.73
2019-02-20T10:23:34.139Z,11.70
2019-02-20T10:26:04.620Z,12.37
2019-02-20T10:28:35.629Z,12.15
2019-02-20T10:31:06.085Z,13.62
2019-02-20T10:33:36.565Z,14.60
2019-02-20T10:36:07.163Z,13.80
2019-02-20T10:38:37.564Z,12.50
2019-02-20T10:41:09.971Z,11.97
2019-02-20T10:43:40.502Z,11.65
2019-02-20T10:46:10.974Z,10.75
2019-02-20T10:48:41.390Z,18.65
2019-02-20T10:51:11.862Z,10.55
2019-02-20T10:53:42.274Z,11.05
2019-02-20T10:56:12.825Z,18.98
2019-02-20T10:58:43.263Z,12.80
2019-02-20T11:01:13.728Z,12.80
2019-02-20T11:03:44.145Z,12.15
2019-02-20T11:06:14.603Z,12.13
2019-02-20T11:08:45.031Z,11.35
2019-02-20T11:11:15.495Z,11.83
2019-02-20T11:13:46.047Z,11.10
2019-02-20T11:16:16.534Z,11.25
2019-02-20T11:18:47.041Z,12.10
2019-02-20T11:21:17.492Z,11.05
2019-02-20T11:23:48.002Z,9.60
2019-02-20T11:26:18.828Z,7.65
2019-02-20T11:28:49.350Z,9.53
2019-02-20T11:31:19.793Z,14.15
2019-02-20T11:33:50.220Z,9.80
2019-02-20T11:36:22.279Z,11.08
2019-02-20T11:38:52.697Z,8.95
2019-02-20T11:41:23.141Z,7.42
2019-02-20T11:43:53.579Z,10.08
2019-02-20T11:46:24.098Z,9.68
2019-02-20T11:48:54.523Z,7.78
2019-02-20T11:51:24.990Z,11.48
2019-02-20T11:53:55.423Z,10.43
2019-02-20T11:56:26.815Z,8.40
2019-02-20T11:58:57.507Z,7.12
2019-02-20T12:01:27.967Z,13.05
2019-02-20T12:03:58.392Z,9.65
2019-02-20T12:06:28.937Z,8.93
2019-02-20T12:08:59.363Z,7.67
2019-02-20T12:11:29.827Z,9.80
2019-02-20T12:14:00.279Z,8.05
2019-02-20T12:16:30.759Z,10.05
2019-02-20T12:19:01.206Z,8.45
2019-02-20T12:21:31.648Z,9.40
2019-02-20T12:24:02.092Z,8.70
2019-02-20T12:26:35.118Z,9.40
2019-02-20T12:29:04.712Z,7.47
2019-02-20T12:31:35.206Z,9.78
2019-02-20T12:34:05.622Z,8.75
2019-02-20T12:36:36.078Z,8.50
2019-02-20T12:39:06.904Z,9.63
2019-02-20T12:41:37.420Z,8.05
2019-02-20T12:44:07.927Z,8.05
2019-02-20T12:46:38.377Z,9.85
2019-02-20T12:49:08.827Z,8.40
2019-02-20T12:51:39.365Z,7.40
2019-02-20T12:54:10.050Z,7.90
2019-02-20T12:56:44.014Z,11.57
2019-02-20T12:59:12.716Z,8.63
2019-02-20T13:01:43.173Z,10.58
2019-02-20T13:04:14.007Z,11.40
2019-02-20T13:06:44.493Z,12.37
2019-02-20T13:09:17.409Z,11.30
2019-02-20T13:11:47.960Z,10.40
2019-02-20T13:14:18.445Z,6.75
2019-02-20T13:16:48.900Z,8.03
2019-02-20T13:19:19.351Z,9.95
2019-02-20T13:21:49.804Z,9.08
2019-02-20T13:24:20.273Z,9.18
2019-02-20T13:26:53.088Z,9.23
2019-02-20T13:29:23.030Z,7.72
2019-02-20T13:31:53.501Z,8.40
2019-02-20T13:34:23.914Z,8.45
2019-02-20T13:36:54.382Z,7.03
2019-02-20T13:39:24.790Z,6.53
2019-02-20T13:41:55.296Z,8.45
2019-02-20T13:44:25.731Z,5.92
2019-02-20T13:46:58.361Z,9.30
2019-02-20T13:49:28.799Z,7.47
2019-02-20T13:51:59.270Z,8.65
2019-02-20T13:54:29.693Z,8.13
2019-02-20T13:57:02.155Z,7.97
2019-02-20T13:59:32.403Z,5.45
2019-02-20T14:02:02.857Z,7.15
2019-02-20T14:04:33.290Z,7.12
2019-02-20T14:07:04.634Z,9.05
2019-02-20T14:09:35.215Z,5.55
2019-02-20T14:12:07.208Z,5.87
2019-02-20T14:14:37.979Z,7.37
2019-02-20T14:17:08.506Z,5.03
2019-02-20T14:19:38.953Z,4.12
2019-02-20T14:22:09.393Z,7.12
2019-02-20T14:24:39.891Z,7.58
2019-02-20T14:27:11.333Z,5.37
2019-02-20T14:29:41.971Z,7.50
2019-02-20T14:32:12.572Z,5.62
2019-02-20T14:34:43.042Z,8.38
2019-02-20T14:37:13.585Z,6.12
2019-02-20T14:39:44.018Z,7.28
2019-02-20T14:42:14.920Z,7.87
2019-02-20T14:44:45.413Z,7.42
2019-02-20T14:47:15.862Z,8.75
2019-02-20T14:49:46.396Z,4.50
2019-02-20T14:52:18.596Z,6.40
2019-02-20T14:54:49.184Z,4.97
2019-02-20T14:57:20.027Z,6.42
2019-02-20T14:59:50.542Z,6.53
2019-02-20T15:02:21.013Z,7.33
2019-02-20T15:04:51.444Z,5.72
2019-02-20T15:07:23.359Z,8.95
2019-02-20T15:09:54.199Z,7.22
2019-02-20T15:12:24.725Z,5.75
2019-02-20T15:14:55.147Z,7.67
2019-02-20T15:17:25.630Z,7.45
2019-02-20T15:19:56.122Z,5.22
2019-02-20T15:22:26.671Z,5.78
2019-02-20T15:24:57.344Z,7.45
2019-02-20T15:27:28.830Z,5.75
2019-02-20T15:29:59.470Z,6.67
2019-02-20T15:32:30.061Z,6.37
2019-02-20T15:35:00.575Z,4.70
2019-02-20T15:37:31.026Z,4.92
2019-02-20T15:40:01.497Z,6.20
2019-02-20T15:42:32.017Z,5.67
2019-02-20T15:45:02.442Z,6.70
2019-02-20T15:47:32.902Z,5.95
2019-02-20T15:50:03.363Z,6.62
2019-02-20T15:52:34.243Z,5.58
2019-02-20T15:55:04.968Z,7.87
2019-02-20T15:57:38.181Z,5.33
2019-02-20T16:00:10.376Z,6.42
2019-02-20T16:02:41.065Z,7.62
2019-02-20T16:05:11.798Z,7.87
2019-02-20T16:07:42.241Z,5.00
2019-02-20T16:10:12.897Z,5.62
2019-02-20T16:12:43.398Z,5.45
2019-02-20T16:15:14.777Z,6.20
2019-02-20T16:17:45.279Z,7.70
2019-02-20T16:20:16.302Z,9.23
2019-02-20T16:22:46.978Z,6.47
2019-02-20T16:25:17.425Z,7.78
2019-02-20T16:27:48.034Z,5.67
2019-02-20T16:30:18.549Z,8.10
2019-02-20T16:32:49.046Z,6.53
2019-02-20T16:35:19.589Z,7.75
2019-02-20T16:37:50.117Z,7.60
2019-02-20T16:40:22.089Z,7.40
2019-02-20T16:42:53.689Z,6.80
2019-02-20T16:45:25.257Z,7.87
2019-02-20T16:47:56.043Z,8.68
2019-02-20T16:50:26.484Z,5.97
2019-02-20T16:52:56.954Z,7.92
2019-02-20T16:55:27.409Z,6.70
2019-02-20T16:57:57.889Z,7.80
2019-02-20T17:00:28.392Z,9.45
2019-02-20T17:02:58.915Z,8.45
2019-02-20T17:05:29.427Z,8.75
2019-02-20T17:08:01.038Z,9.95
2019-02-20T17:10:31.510Z,8.68
2019-02-20T17:13:02.056Z,8.58
2019-02-20T17:15:32.809Z,8.78
2019-02-20T17:18:03.335Z,7.42
2019-02-20T17:20:34.978Z,7.95
2019-02-20T17:23:05.429Z,6.87
2019-02-20T17:25:36.154Z,8.58
2019-02-20T17:28:06.871Z,7.00
2019-02-20T17:30:37.714Z,8.13
2019-02-20T17:33:08.223Z,8.13
2019-02-20T17:35:38.699Z,8.35
2019-02-20T17:38:09.256Z,8.60
2019-02-20T17:40:39.733Z,8.65
2019-02-20T17:43:10.482Z,9.15
2019-02-20T17:45:40.956Z,8.98
2019-02-20T17:48:11.389Z,8.13
2019-02-20T17:50:41.940Z,8.05
2019-02-20T17:53:12.376Z,11.75
2019-02-20T17:55:42.892Z,9.30
2019-02-20T17:58:15.439Z,8.10
2019-02-20T18:00:45.871Z,11.20
2019-02-20T18:03:17.441Z,11.53
2019-02-20T18:05:48.082Z,11.50
2019-02-20T18:08:18.478Z,7.97
2019-02-20T18:10:48.968Z,7.65
2019-02-20T18:13:19.777Z,9.88
2019-02-20T18:15:50.359Z,7.97
2019-02-20T18:18:20.902Z,6.87
2019-02-20T18:20:51.345Z,8.83
2019-02-20T18:23:21.776Z,10.50
2019-02-20T18:25:52.214Z,11.75
2019-02-20T18:28:24.742Z,8.23
2019-02-20T18:30:54.893Z,9.73
2019-02-20T18:33:25.948Z,10.13
2019-02-20T18:35:56.402Z,9.28
2019-02-20T18:38:26.881Z,7.70
2019-02-20T18:40:57.354Z,8.85
2019-02-20T18:43:27.814Z,9.55
2019-02-20T18:45:58.365Z,8.63
2019-02-20T18:48:28.869Z,7.72
2019-02-20T18:50:59.474Z,9.80
2019-02-20T18:53:30.982Z,10.35
2019-02-20T18:56:01.635Z,9.93
2019-02-20T18:58:34.263Z,8.80
2019-02-20T19:01:05.365Z,8.20
2019-02-20T19:03:36.181Z,9.15
2019-02-20T19:06:06.697Z,7.85
2019-02-20T19:08:46.927Z,10.43
2019-02-20T19:12:12.926Z,7.65
2019-02-20T19:15:26.647Z,8.60
2019-02-20T19:18:47.807Z,9.08
2019-02-20T19:22:20.786Z,7.80
2019-02-20T19:26:03.717Z,9.90
2019-02-20T19:29:23.259Z,10.00
2019-02-20T19:32:40.366Z,9.40
2019-02-20T19:36:22.615Z,14.13
2019-02-20T19:39:13.198Z,12.33
2019-02-20T19:42:43.017Z,12.55
2019-02-20T19:46:02.140Z,15.80
2019-02-20T19:49:29.076Z,12.15
2019-02-20T19:52:54.801Z,11.20
2019-02-20T19:56:01.755Z,10.97
2019-02-20T19:59:50.386Z,10.33
2019-02-20T20:03:07.003Z,11.00
2019-02-20T20:06:49.804Z,9.40
2019-02-20T20:10:01.486Z,8.77
2019-02-20T20:13:42.404Z,9.15
2019-02-20T20:17:14.262Z,10.48
2019-02-20T20:20:05.853Z,11.03
2019-02-20T20:23:30.563Z,9.93
2019-02-20T20:27:03.017Z,11.90
2019-02-20T20:30:40.282Z,9.17
2019-02-20T20:34:18.510Z,11.48
2019-02-20T20:37:34.434Z,13.58
2019-02-20T20:40:59.947Z,11.73
2019-02-20T20:44:14.841Z,10.57
2019-02-20T20:47:21.556Z,9.85
2019-02-20T20:50:51.604Z,11.68
2019-02-20T20:54:12.579Z,9.80
2019-02-20T20:57:51.677Z,11.83
2019-02-20T21:01:08.953Z,11.57
2019-02-20T21:03:54.129Z,11.63
2019-02-20T21:06:59.373Z,11.73
2019-02-20T21:10:24.429Z,10.63
2019-02-20T21:13:15.487Z,10.98
2019-02-20T21:16:22.230Z,12.37
2019-02-20T21:19:41.530Z,12.40
2019-02-20T21:22:52.827Z,11.50
2019-02-20T21:26:24.915Z,10.47
2019-02-20T21:30:01.265Z,10.10
2019-02-20T21:33:25.336Z,9.98
2019-02-20T21:36:33.177Z,9.00
2019-02-20T21:39:33.382Z,9.93
2019-02-20T21:42:45.819Z,9.97
2019-02-20T21:46:16.169Z,10.80
2019-02-20T21:49:30.020Z,11.68
2019-02-20T21:53:02.578Z,8.47
2019-02-20T21:56:31.791Z,9.20
2019-02-20T22:00:07.722Z,10.27
2019-02-20T22:03:06.475Z,11.17
2019-02-20T22:06:22.963Z,12.40
2019-02-20T22:09:22.487Z,11.00
2019-02-20T22:12:51.204Z,9.67
2019-02-20T22:15:51.023Z,11.30
2019-02-20T22:19:13.527Z,14.77
2019-02-20T22:22:49.782Z,11.60
2019-02-20T22:26:05.731Z,11.28
2019-02-20T22:29:50.081Z,10.23
2019-02-20T22:33:03.719Z,11.00
2019-02-20T22:36:06.079Z,12.43
2019-02-20T22:39:45.387Z,10.23
2019-02-20T22:43:12.098Z,12.03
2019-02-20T22:46:11.296Z,10.50
2019-02-20T22:49:19.334Z,11.43
2019-02-20T22:52:23.103Z,10.50
2019-02-20T22:55:51.633Z,12.07
2019-02-20T22:59:18.420Z,12.70
2019-02-20T23:02:49.102Z,13.70
2019-02-20T23:06:19.860Z,13.03
2019-02-20T23:09:44.409Z,11.18
2019-02-20T23:12:51.797Z,10.75
2019-02-20T23:15:22.294Z,12.90
2019-02-20T23:17:52.753Z,12.73
2019-02-20T23:20:23.172Z,11.75
2019-02-20T23:22:53.595Z,13.08
2019-02-20T23:25:24.025Z,13.10
2019-02-20T23:27:54.475Z,13.97
2019-02-20T23:30:24.909Z,11.78
2019-02-20T23:32:55.379Z,13.80
2019-02-20T23:35:26.068Z,12.40
2019-02-20T23:37:56.515Z,12.50
2019-02-20T23:40:27.753Z,12.43
2019-02-20T23:42:58.525Z,12.37
2019-02-20T23:45:29.089Z,15.57
2019-02-20T23:47:59.614Z,13.65
2019-02-20T23:50:30.039Z,11.87
2019-02-20T23:53:00.470Z,13.77
2019-02-20T23:55:30.873Z,10.87
2019-02-20T23:58:01.414Z,11.77
